Time;durP1;ratioP1;P1;durP2;ratioP2;P2;SDS_P1;SDS_P2;PMS_P1;PMS_P2;Temp;Humidity;BMP_temperature;BMP_pressure;BME280_temperature;BME280_humidity;BME280_pressure;Samples;Min_cycle;Max_cycle;Signal;HPM_P1;HPM_P2
2023/08/22 00:02:40;;;;;;;11.38;7.45;;;;;;;20.26;91.96;101012.69;5005420;28;20045;-74
2023/08/22 00:05:46;;;;;;;7.78;6.82;;;;;;;20.22;92.22;101014.75;5006394;28;20455;-74
2023/08/22 00:08:52;;;;;;;20.40;8.45;;;;;;;20.19;92.32;101013.19;5004224;28;20522;-74
2023/08/22 00:11:55;;;;;;;13.52;8.05;;;;;;;20.08;92.77;101013.28;5004340;28;20073;-74
2023/08/22 00:15:07;;;;;;;11.73;6.95;;;;;;;20.07;93.08;101005.44;5015107;28;20089;-74
2023/08/22 00:18:10;;;;;;;18.60;7.32;;;;;;;20.07;93.06;101005.44;4998495;28;20042;-74
2023/08/22 00:21:14;;;;;;;14.43;7.10;;;;;;;19.95;93.16;101000.22;5004306;28;20040;-74
2023/08/22 00:24:18;;;;;;;12.43;7.18;;;;;;;19.85;93.83;101004.59;4999507;28;20132;-75
2023/08/22 00:27:21;;;;;;;14.93;7.35;;;;;;;19.87;94.01;101001.81;5000049;28;20045;-74
2023/08/22 00:30:24;;;;;;;10.80;6.80;;;;;;;19.90;93.42;100994.44;4993422;28;20037;-75
2023/08/22 00:33:27;;;;;;;11.20;6.47;;;;;;;19.95;93.05;100994.06;4988280;28;20403;-75
2023/08/22 00:36:33;;;;;;;14.00;6.72;;;;;;;20.01;92.64;100984.75;4991478;28;20057;-75
2023/08/22 00:39:38;;;;;;;13.15;7.55;;;;;;;19.97;92.51;100979.69;5004337;28;20073;-74
2023/08/22 00:42:51;;;;;;;10.23;7.15;;;;;;;19.92;92.72;100981.06;5005423;28;20033;-74
2023/08/22 00:45:55;;;;;;;18.20;7.18;;;;;;;19.91;93.04;100968.72;4991772;28;20092;-74
2023/08/22 00:49:01;;;;;;;9.02;6.65;;;;;;;19.88;92.69;100967.19;5004475;28;20038;-74
2023/08/22 00:52:09;;;;;;;15.55;6.28;;;;;;;19.78;93.17;100960.97;4993422;28;20546;-74
2023/08/22 00:55:15;;;;;;;10.60;6.53;;;;;;;19.69;93.40;100956.44;4998238;28;20049;-74
2023/08/22 00:58:18;;;;;;;14.18;7.28;;;;;;;19.70;93.41;100960.78;4992121;28;20049;-73
2023/08/22 01:01:25;;;;;;;10.93;6.68;;;;;;;19.78;93.41;100944.19;4999101;28;20052;-74
2023/08/22 01:04:40;;;;;;;11.35;6.55;;;;;;;19.81;92.86;100955.41;5004262;28;20109;-74
2023/08/22 01:07:53;;;;;;;13.88;7.53;;;;;;;19.81;92.93;100947.44;5004986;28;20045;-74
2023/08/22 01:11:10;;;;;;;9.73;6.50;;;;;;;19.71;93.62;100947.38;4992448;28;20049;-75
2023/08/22 01:14:17;;;;;;;11.95;6.53;;;;;;;19.71;94.17;100947.38;5002984;28;20050;-74
2023/08/22 01:17:22;;;;;;;13.40;7.75;;;;;;;19.69;94.32;100946.69;5002094;28;20049;-75
2023/08/22 01:20:26;;;;;;;9.30;6.60;;;;;;;19.74;94.53;100949.78;4982314;28;20042;-74
2023/08/22 01:23:29;;;;;;;11.88;6.97;;;;;;;19.78;94.11;100950.34;4994528;28;20061;-75
2023/08/22 01:26:47;;;;;;;12.50;7.20;;;;;;;19.79;93.67;100945.91;4994337;28;20049;-75
2023/08/22 01:30:17;;;;;;;9.48;6.32;;;;;;;19.74;93.22;100952.41;4994179;28;20057;-75
2023/08/22 01:33:32;;;;;;;10.70;6.55;;;;;;;19.72;93.73;100957.03;4994139;28;20049;-74
2023/08/22 01:36:37;;;;;;;14.20;6.50;;;;;;;19.68;94.08;100960.88;4994052;28;20193;-75
2023/08/22 01:39:42;;;;;;;10.60;6.20;;;;;;;19.70;94.50;100952.81;4994003;28;20060;-73
2023/08/22 01:42:45;;;;;;;10.43;6.45;;;;;;;19.71;94.85;100962.44;4982221;28;20049;-73
2023/08/22 01:45:49;;;;;;;12.18;8.77;;;;;;;19.74;95.37;100954.22;4993925;28;20539;-73
2023/08/22 01:48:53;;;;;;;18.75;10.50;;;;;;;19.67;95.38;100961.88;4994086;28;20112;-73
2023/08/22 01:51:58;;;;;;;11.13;7.47;;;;;;;19.68;95.37;100970.66;4982085;28;20037;-73
2023/08/22 01:55:03;;;;;;;16.63;7.53;;;;;;;19.66;94.82;100965.50;4993758;28;20053;-73
2023/08/22 01:58:10;;;;;;;11.25;7.75;;;;;;;19.70;94.66;100972.22;4981619;28;20084;-74
2023/08/22 02:01:14;;;;;;;10.63;6.68;;;;;;;19.64;94.08;100969.25;4981581;28;20065;-74
2023/08/22 02:04:17;;;;;;;11.50;6.45;;;;;;;19.60;94.15;100971.28;4981594;28;20053;-74
2023/08/22 02:07:21;;;;;;;20.77;8.20;;;;;;;19.54;94.14;100969.13;4993557;28;20134;-74
2023/08/22 02:10:24;;;;;;;15.05;8.48;;;;;;;19.53;94.81;100970.13;4993287;28;20435;-74
2023/08/22 02:13:27;;;;;;;12.57;8.93;;;;;;;19.51;95.71;100970.22;4993550;28;20101;-74
2023/08/22 02:16:31;;;;;;;13.63;7.95;;;;;;;19.48;95.36;100974.94;4981540;28;20419;-75
2023/08/22 02:19:34;;;;;;;17.20;8.20;;;;;;;19.48;95.02;100974.94;4993679;28;20061;-74
2023/08/22 02:22:41;;;;;;;16.38;8.30;;;;;;;19.48;95.32;100975.78;4981300;28;20092;-74
2023/08/22 02:25:46;;;;;;;15.52;8.48;;;;;;;19.47;95.71;100981.22;4993412;28;20451;-74
2023/08/22 02:28:51;;;;;;;16.67;10.45;;;;;;;19.45;97.03;100983.16;4981576;28;20566;-74
2023/08/22 02:31:55;;;;;;;22.65;11.27;;;;;;;19.43;98.23;100982.44;4993490;28;20117;-74
2023/08/22 02:35:00;;;;;;;15.82;10.20;;;;;;;19.40;98.45;100978.25;4993549;28;20053;-74
2023/08/22 02:38:05;;;;;;;20.02;10.40;;;;;;;19.42;98.08;100986.06;4981532;28;20573;-78
2023/08/22 02:41:10;;;;;;;19.13;10.82;;;;;;;19.37;98.37;100982.94;4993415;28;20049;-74
2023/08/22 02:44:13;;;;;;;15.95;10.80;;;;;;;19.35;98.85;100979.59;4993479;28;20065;-74
2023/08/22 02:47:19;;;;;;;20.35;10.60;;;;;;;19.31;98.98;100979.00;4993125;28;20085;-73
2023/08/22 02:50:23;;;;;;;16.65;10.18;;;;;;;19.33;98.26;100970.91;4993204;28;20072;-73
2023/08/22 02:53:29;;;;;;;16.38;10.90;;;;;;;19.31;98.08;100967.56;4993134;28;20045;-76
2023/08/22 02:56:32;;;;;;;15.45;9.88;;;;;;;19.27;98.62;100966.94;4993151;28;20045;-80
2023/08/22 02:59:35;;;;;;;17.15;10.65;;;;;;;19.25;97.84;100968.91;4993124;28;20041;-75
2023/08/22 03:02:40;;;;;;;13.65;10.02;;;;;;;19.21;98.22;100957.69;4993138;28;20099;-74
2023/08/22 03:05:44;;;;;;;17.88;11.02;;;;;;;19.32;97.95;100958.63;4981351;28;20066;-74
2023/08/22 03:08:49;;;;;;;15.93;11.52;;;;;;;19.23;97.75;100960.22;4973379;28;20130;-74
2023/08/22 03:11:52;;;;;;;16.42;10.13;;;;;;;19.18;98.25;100960.59;4980741;28;20073;-74
2023/08/22 03:14:56;;;;;;;14.55;10.73;;;;;;;19.17;98.44;100966.00;4993016;28;20170;-74
2023/08/22 03:18:00;;;;;;;19.73;11.68;;;;;;;19.15;98.75;100963.50;4981271;28;20057;-74
2023/08/22 03:21:04;;;;;;;14.48;10.60;;;;;;;19.29;97.99;100962.38;4980863;28;20572;-74
2023/08/22 03:24:07;;;;;;;18.30;11.75;;;;;;;19.30;97.75;100966.69;4992795;28;20054;-74
2023/08/22 03:27:11;;;;;;;11.93;9.82;;;;;;;19.23;98.42;100965.50;4980955;28;20072;-74
2023/08/22 03:30:15;;;;;;;15.35;10.63;;;;;;;19.18;98.37;100970.38;4983040;28;20084;-74
2023/08/22 03:33:19;;;;;;;12.73;10.82;;;;;;;19.15;98.50;100963.50;4996396;28;20096;-74
2023/08/22 03:36:22;;;;;;;12.45;10.32;;;;;;;19.11;98.95;100969.16;4996290;28;20072;-74
2023/08/22 03:39:25;;;;;;;13.30;10.30;;;;;;;19.13;98.84;100959.28;4996281;28;20411;-74
2023/08/22 03:42:29;;;;;;;14.07;8.77;;;;;;;19.08;97.40;100970.28;4996222;28;20463;-75
2023/08/22 03:45:38;;;;;;;11.45;8.02;;;;;;;19.03;96.92;100964.50;4984104;28;20052;-74
2023/08/22 03:48:43;;;;;;;14.95;9.60;;;;;;;18.92;97.62;100962.72;4996005;28;20049;-74
2023/08/22 03:51:46;;;;;;;13.45;10.07;;;;;;;18.88;98.85;100965.72;4983976;28;20097;-74
2023/08/22 03:54:49;;;;;;;11.45;10.25;;;;;;;18.85;99.13;100966.81;4984198;28;20514;-74
2023/08/22 03:57:53;;;;;;;14.05;9.77;;;;;;;18.94;99.34;100965.22;4983864;28;20042;-74
2023/08/22 04:01:03;;;;;;;15.48;10.55;;;;;;;18.95;98.55;100975.72;4983773;28;20455;-74
2023/08/22 04:04:07;;;;;;;15.70;10.40;;;;;;;18.93;98.71;100984.75;4983741;28;20053;-73
2023/08/22 04:07:10;;;;;;;18.77;11.60;;;;;;;18.91;98.64;100973.41;4983701;28;20044;-74
2023/08/22 04:10:14;;;;;;;14.63;11.00;;;;;;;18.85;99.43;100976.56;4983624;28;20042;-73
2023/08/22 04:13:18;;;;;;;16.13;11.75;;;;;;;18.83;100.00;100979.34;4995845;28;20169;-73
2023/08/22 04:16:22;;;;;;;16.13;11.25;;;;;;;18.87;99.53;100980.78;4995643;28;20056;-73
2023/08/22 04:19:25;;;;;;;15.52;12.35;;;;;;;18.84;100.00;100982.84;4995759;28;20077;-74
2023/08/22 04:22:30;;;;;;;17.92;12.88;;;;;;;18.80;100.00;100975.13;4995361;28;20041;-74
2023/08/22 04:25:33;;;;;;;14.05;10.88;;;;;;;18.83;99.94;100981.16;4981874;28;20061;-74
2023/08/22 04:28:37;;;;;;;14.82;9.98;;;;;;;18.83;99.18;100984.66;4982482;28;20041;-74
2023/08/22 04:31:40;;;;;;;12.73;10.52;;;;;;;18.97;98.07;100987.03;4981378;28;20057;-74
2023/08/22 04:34:44;;;;;;;12.30;10.77;;;;;;;18.87;98.48;100985.25;4981464;28;20514;-74
2023/08/22 04:37:47;;;;;;;13.65;9.85;;;;;;;18.80;99.11;100982.25;4973353;28;20200;-73
2023/08/22 04:40:51;;;;;;;13.38;10.00;;;;;;;18.77;99.62;100980.66;4980931;28;20085;-73
2023/08/22 04:44:00;;;;;;;15.82;10.40;;;;;;;18.73;99.54;100989.84;4979726;28;20113;-76
2023/08/22 04:47:04;;;;;;;13.68;11.18;;;;;;;18.72;99.53;100985.47;4979157;28;20053;-74
2023/08/22 04:50:08;;;;;;;11.68;9.98;;;;;;;18.79;99.42;100989.34;4980435;28;20065;-73
2023/08/22 04:53:11;;;;;;;15.07;10.65;;;;;;;18.88;98.55;100990.41;4980603;28;20084;-73
2023/08/22 04:56:15;;;;;;;19.17;11.73;;;;;;;18.95;98.25;100986.31;4992485;28;20100;-74
2023/08/22 04:59:18;;;;;;;16.73;11.18;;;;;;;19.01;97.90;100977.84;4992715;28;20073;-74
2023/08/22 05:02:22;;;;;;;15.00;11.45;;;;;;;19.11;97.20;100983.25;4980398;28;20037;-74
2023/08/22 05:05:26;;;;;;;12.77;10.27;;;;;;;19.05;97.51;100986.44;4981177;28;20105;-74
2023/08/22 05:08:29;;;;;;;15.60;11.48;;;;;;;19.00;97.72;100985.94;4980563;28;20461;-74
2023/08/22 05:11:33;;;;;;;12.80;10.32;;;;;;;19.01;97.19;100982.31;4980514;28;20500;-74
2023/08/22 05:14:39;;;;;;;10.65;8.25;;;;;;;19.04;96.81;100982.06;4980917;28;20118;-74
2023/08/22 05:17:43;;;;;;;12.02;9.23;;;;;;;18.93;96.78;100980.28;4980689;28;20126;-74
2023/08/22 05:20:51;;;;;;;13.02;8.80;;;;;;;18.89;97.06;100980.66;4992408;28;20125;-75
2023/08/22 05:23:55;;;;;;;16.73;10.05;;;;;;;18.87;97.51;100985.25;4969497;28;20052;-74
2023/08/22 05:26:59;;;;;;;13.73;10.00;;;;;;;18.81;97.90;100974.16;4980784;28;20045;-74
2023/08/22 05:30:06;;;;;;;13.23;9.23;;;;;;;18.79;98.16;100976.09;4980033;28;20100;-74
2023/08/22 05:33:09;;;;;;;14.88;10.45;;;;;;;18.82;98.03;100977.66;4991819;28;20169;-74
2023/08/22 05:36:14;;;;;;;13.60;10.18;;;;;;;18.88;97.88;100981.63;4979734;28;20053;-75
2023/08/22 05:39:18;;;;;;;15.93;10.30;;;;;;;18.87;97.65;100979.94;4979202;28;20080;-75
2023/08/22 05:42:21;;;;;;;11.93;10.20;;;;;;;18.88;97.69;100981.63;4979919;28;20056;-75
2023/08/22 05:45:25;;;;;;;12.00;10.07;;;;;;;18.91;97.18;100982.22;4991843;28;20077;-75
2023/08/22 05:48:29;;;;;;;11.73;10.52;;;;;;;18.90;97.83;100985.84;4980006;28;20121;-75
2023/08/22 05:51:32;;;;;;;10.98;9.93;;;;;;;18.98;97.12;100985.22;4979270;28;20503;-75
2023/08/22 05:54:36;;;;;;;10.75;9.75;;;;;;;19.11;96.30;100980.59;4992259;28;20080;-74
2023/08/22 05:57:40;;;;;;;12.82;10.00;;;;;;;19.22;96.24;100990.34;4979724;28;20073;-74
2023/08/22 06:00:43;;;;;;;12.40;10.00;;;;;;;19.31;95.45;100988.78;4979474;28;20042;-74
2023/08/22 06:03:46;;;;;;;11.95;10.27;;;;;;;19.35;95.13;100987.53;4979592;28;20092;-73
2023/08/22 06:06:50;;;;;;;15.75;10.48;;;;;;;19.42;94.81;100991.38;4979660;28;20093;-73
2023/08/22 06:09:53;;;;;;;13.55;9.52;;;;;;;19.52;94.18;100997.59;4991811;28;20095;-73
2023/08/22 06:12:56;;;;;;;11.68;9.70;;;;;;;19.54;93.47;100995.66;4979802;28;20080;-73
2023/08/22 06:16:00;;;;;;;12.60;10.18;;;;;;;19.46;94.92;100996.31;4979837;28;20097;-74
2023/08/22 06:19:10;;;;;;;12.52;9.45;;;;;;;19.42;95.10;100997.50;4992173;28;20412;-89
2023/08/22 06:22:15;;;;;;;13.00;10.77;;;;;;;19.36;95.80;101007.78;4957928;28;20092;-85
2023/08/22 06:26:34;;;;;;;11.98;10.05;;;;;;;19.35;96.65;100998.16;4983915;28;20150;-88
2023/08/22 06:29:38;;;;;;;13.75;10.30;;;;;;;19.49;96.44;100993.38;4980070;28;20133;-85
2023/08/22 06:32:46;;;;;;;15.25;10.55;;;;;;;19.53;95.44;100999.28;4991751;28;20045;-85
2023/08/22 06:41:43;;;;;;;14.65;9.43;;;;;;;19.82;95.71;101004.03;4991649;28;20116;-87
2023/08/22 06:44:57;;;;;;;11.15;8.63;;;;;;;19.82;94.78;101001.38;4991685;28;20112;-82
2023/08/22 06:51:50;;;;;;;12.23;7.97;;;;;;;20.11;93.53;100996.25;4991747;28;20177;-84
2023/08/22 06:54:54;;;;;;;11.80;8.48;;;;;;;20.11;93.30;100989.13;4991790;28;20073;-79
2023/08/22 06:57:57;;;;;;;9.45;6.60;;;;;;;20.18;92.88;100992.09;4991462;28;20054;-82
2023/08/22 07:01:04;;;;;;;8.23;5.82;;;;;;;20.26;92.43;100991.44;4990550;28;20049;-80
2023/08/22 07:04:07;;;;;;;8.60;5.65;;;;;;;20.16;93.14;100997.53;4993779;28;20104;-83
2023/08/22 07:07:10;;;;;;;13.07;6.25;;;;;;;20.12;94.03;100990.81;4995887;28;20093;-84
2023/08/22 07:10:13;;;;;;;15.50;5.70;;;;;;;20.13;94.82;100991.63;4995521;28;20447;-74
2023/08/22 07:13:20;;;;;;;7.97;4.85;;;;;;;20.23;95.13;100986.38;4976596;28;20101;-88
2023/08/22 07:16:52;;;;;;;9.70;5.43;;;;;;;20.25;94.68;101003.03;4976076;28;20065;-87
2023/08/22 07:19:56;;;;;;;10.80;5.82;;;;;;;20.35;94.31;100986.19;4975818;28;20058;-83
2023/08/22 07:23:00;;;;;;;12.95;5.30;;;;;;;20.51;93.09;100983.06;4975628;28;20441;-81
2023/08/22 07:26:25;;;;;;;12.25;6.57;;;;;;;20.66;91.39;100983.56;4975727;28;20144;-87
2023/08/22 07:29:29;;;;;;;10.98;5.53;;;;;;;20.82;90.94;100980.41;4975729;28;20046;-84
2023/08/22 07:32:32;;;;;;;8.95;5.25;;;;;;;20.91;90.66;100979.59;4975322;28;20041;-86
2023/08/22 07:35:35;;;;;;;9.90;5.53;;;;;;;21.01;90.23;100980.44;4975240;28;20094;-85
2023/08/22 07:38:38;;;;;;;9.10;4.63;;;;;;;21.17;89.09;100984.38;4963622;28;20539;-74
2023/08/22 07:41:43;;;;;;;5.70;4.22;;;;;;;21.29;88.78;100980.63;4975222;28;20070;-82
2023/08/22 07:44:50;;;;;;;8.35;4.53;;;;;;;21.41;88.72;100982.22;4975592;28;20567;-82
2023/08/22 07:47:54;;;;;;;6.03;3.97;;;;;;;21.46;87.55;100977.31;4963265;28;20142;-82
2023/08/22 07:50:59;;;;;;;10.20;4.88;;;;;;;21.53;87.95;100983.72;4963974;28;20041;-83
2023/08/22 07:54:05;;;;;;;14.48;4.53;;;;;;;21.59;87.77;100987.66;4963109;28;20049;-80
2023/08/22 07:57:11;;;;;;;9.00;4.00;;;;;;;21.64;87.16;100990.75;4975269;28;20037;-82
2023/08/22 08:00:16;;;;;;;12.00;5.28;;;;;;;21.70;87.97;100990.19;4974671;28;20101;-86
2023/08/22 08:03:23;;;;;;;8.80;3.72;;;;;;;21.78;87.93;100995.63;4974837;28;20049;-83
2023/08/22 08:06:26;;;;;;;9.40;5.00;;;;;;;21.87;87.16;100988.63;4974674;28;20101;-79
2023/08/22 08:10:00;;;;;;;9.77;3.75;;;;;;;21.96;86.90;100990.44;4951578;28;20523;-89
2023/08/22 08:13:05;;;;;;;6.97;3.60;;;;;;;22.08;84.99;100992.94;4974705;28;20049;-81
2023/08/22 08:16:09;;;;;;;7.43;3.50;;;;;;;22.19;82.34;100990.97;4974266;28;20572;-85
2023/08/22 08:19:40;;;;;;;8.25;3.72;;;;;;;22.23;80.80;100986.19;4975236;28;20105;-86
2023/08/22 08:23:34;;;;;;;6.88;3.60;;;;;;;22.36;80.08;100976.06;4959699;28;20062;-90
2023/08/22 08:26:42;;;;;;;8.95;3.53;;;;;;;22.49;81.06;100975.72;4974703;28;20199;-82
2023/08/22 08:29:49;;;;;;;8.57;3.28;;;;;;;22.59;80.41;100976.56;4962824;28;20046;-82
2023/08/22 08:32:53;;;;;;;5.57;3.28;;;;;;;22.65;80.31;100969.78;4974179;28;20170;-79
2023/08/22 08:35:57;;;;;;;7.55;3.35;;;;;;;22.70;79.46;100975.50;4974178;28;20531;-82
2023/08/22 08:39:17;;;;;;;6.03;3.67;;;;;;;22.74;78.88;100974.22;4974206;28;20085;-81
2023/08/22 08:42:26;;;;;;;8.40;3.17;;;;;;;22.82;78.85;100977.00;4972921;28;20050;-79
2023/08/22 08:45:30;;;;;;;7.50;3.38;;;;;;;22.92;78.81;100972.44;4974578;28;20101;-83
2023/08/22 08:48:39;;;;;;;7.88;3.30;;;;;;;22.94;76.83;100973.16;4973915;28;20085;-81
2023/08/22 08:51:46;;;;;;;8.38;3.50;;;;;;;22.98;75.62;100971.88;4948457;28;20111;-78
2023/08/22 08:54:51;;;;;;;10.05;3.20;;;;;;;23.07;74.78;100974.63;4983880;28;20061;-81
2023/08/22 08:57:58;;;;;;;10.63;3.20;;;;;;;23.11;75.03;100984.00;4981695;28;20145;-80
2023/08/22 09:01:10;;;;;;;9.27;3.92;;;;;;;23.19;75.83;100984.09;4983033;28;20564;-80
2023/08/22 09:04:14;;;;;;;6.97;2.95;;;;;;;23.28;68.42;100977.84;4983733;28;20132;-79
2023/08/22 09:07:21;;;;;;;7.20;2.85;;;;;;;23.46;66.75;100980.53;4984356;28;20182;-80
2023/08/22 09:10:35;;;;;;;7.13;2.80;;;;;;;23.50;66.14;100976.53;4983022;28;20041;-82
2023/08/22 09:13:42;;;;;;;6.38;2.47;;;;;;;23.53;68.12;100986.09;5001654;28;20086;-81
2023/08/22 09:16:46;;;;;;;9.75;2.88;;;;;;;23.61;66.81;100980.81;5001826;28;20049;-83
2023/08/22 09:19:51;;;;;;;5.40;2.80;;;;;;;23.75;67.88;100990.16;5002366;28;20112;-80
2023/08/22 09:22:54;;;;;;;6.97;3.25;;;;;;;23.88;67.25;100990.56;4990657;28;20045;-81
2023/08/22 09:26:02;;;;;;;7.30;2.90;;;;;;;24.02;66.17;100984.66;5003044;28;20191;-80
2023/08/22 09:29:07;;;;;;;9.65;2.70;;;;;;;24.16;65.69;100983.25;4992928;28;20145;-81
2023/08/22 09:32:10;;;;;;;7.70;3.40;;;;;;;24.19;66.09;100993.63;4992489;28;20041;-80
2023/08/22 09:35:18;;;;;;;9.60;2.72;;;;;;;24.21;64.06;100986.28;4992584;28;20082;-80
2023/08/22 09:38:22;;;;;;;8.38;2.88;;;;;;;24.24;64.85;100985.97;4980209;28;20559;-80
2023/08/22 09:41:28;;;;;;;8.43;2.58;;;;;;;24.24;61.94;100980.63;4992381;28;20491;-80
2023/08/22 09:44:34;;;;;;;9.30;3.10;;;;;;;24.39;59.06;100982.72;4992399;28;20471;-80
2023/08/22 09:47:44;;;;;;;7.22;2.95;;;;;;;24.40;58.23;100987.06;4993694;28;20049;-80
2023/08/22 09:50:51;;;;;;;7.38;2.60;;;;;;;24.47;60.06;100980.94;4993470;28;20096;-79
2023/08/22 09:53:59;;;;;;;5.15;2.47;;;;;;;24.43;60.31;100976.91;4993709;28;20037;-79
2023/08/22 09:57:04;;;;;;;7.78;3.08;;;;;;;24.58;58.41;100985.19;4993508;28;20097;-79
2023/08/22 10:00:11;;;;;;;10.57;3.00;;;;;;;24.56;57.07;100974.63;4993596;28;20050;-82
2023/08/22 10:03:21;;;;;;;8.68;2.75;;;;;;;24.68;59.18;100985.91;4982184;28;20436;-81
2023/08/22 10:06:36;;;;;;;14.63;3.13;;;;;;;24.80;57.39;100987.28;4993332;28;20049;-80
2023/08/22 10:09:42;;;;;;;7.18;2.60;;;;;;;24.96;56.55;100974.97;4993496;28;20073;-79
2023/08/22 10:12:46;;;;;;;9.88;2.80;;;;;;;25.00;56.17;100977.16;4993241;28;20049;-79
2023/08/22 10:15:50;;;;;;;9.35;3.15;;;;;;;25.04;56.27;100980.31;4993472;28;20122;-81
2023/08/22 10:19:02;;;;;;;8.98;3.28;;;;;;;24.92;56.33;100978.94;4993474;28;20129;-79
2023/08/22 10:22:07;;;;;;;;;;;;;;;24.99;57.88;100971.97;4981624;28;20100;-79
2023/08/22 10:25:10;;;;;;;8.18;2.90;;;;;;;25.09;56.99;100963.81;4993121;28;20298;-81
2023/08/22 10:28:14;;;;;;;6.10;2.63;;;;;;;25.13;56.41;100960.66;4993118;28;20061;-81
2023/08/22 10:31:18;;;;;;;6.75;2.50;;;;;;;25.17;55.81;100967.34;4993114;28;20045;-79
2023/08/22 10:34:24;;;;;;;10.52;3.35;;;;;;;25.26;56.59;100960.16;4992683;28;20076;-79
2023/08/22 10:37:28;;;;;;;5.97;2.17;;;;;;;25.33;57.17;100968.38;4992903;28;20121;-79
2023/08/22 10:40:33;;;;;;;5.68;2.50;;;;;;;25.44;55.55;100962.69;4997279;28;20077;-81
2023/08/22 10:43:38;;;;;;;7.57;2.20;;;;;;;25.54;55.47;100954.50;4997638;28;20065;-80
2023/08/22 10:47:01;;;;;;;10.18;2.85;;;;;;;25.58;55.41;100959.34;4997271;28;20045;-80
2023/08/22 10:50:11;;;;;;;6.93;3.35;;;;;;;25.44;54.49;100949.31;4996846;28;20057;-82
2023/08/22 10:53:27;;;;;;;7.93;2.70;;;;;;;25.38;54.65;100949.97;4985034;28;20132;-79
2023/08/22 10:56:30;;;;;;;5.88;2.35;;;;;;;25.39;55.50;100954.31;4996716;28;20184;-79
2023/08/22 11:00:25;;;;;;;5.72;2.38;;;;;;;25.57;56.29;100952.31;4997075;28;20104;-85
2023/08/22 11:03:32;;;;;;;5.35;2.33;;;;;;;25.66;55.96;100940.59;5001060;28;20077;-81
2023/08/22 11:06:37;;;;;;;6.53;2.67;;;;;;;25.60;55.06;100941.28;4998163;28;20045;-83
2023/08/22 11:10:06;;;;;;;5.45;2.63;;;;;;;25.67;55.41;100944.94;4996808;28;20455;-85
2023/08/22 11:13:12;;;;;;;8.43;3.40;;;;;;;25.82;57.92;100942.47;4977163;28;20049;-83
2023/08/22 11:16:19;;;;;;;6.60;2.40;;;;;;;26.02;56.35;100945.59;4966087;28;20058;-83
2023/08/22 11:19:25;;;;;;;7.47;2.72;;;;;;;26.05;54.63;100931.03;4977029;28;20041;-83
2023/08/22 11:22:32;;;;;;;8.52;3.13;;;;;;;26.05;53.68;100939.91;4977113;28;20077;-84
2023/08/22 11:26:02;;;;;;;5.55;2.70;;;;;;;25.95;53.49;100944.63;4977000;28;20591;-87
2023/08/22 11:29:07;;;;;;;5.72;2.50;;;;;;;25.97;53.39;100942.59;4976263;28;20065;-82
2023/08/22 11:35:52;;;;;;;6.82;2.75;;;;;;;26.07;53.74;100932.53;5627297;23;20059;-81
2023/08/22 11:38:59;;;;;;;5.78;2.70;;;;;;;26.04;54.71;100935.56;4976396;28;20045;-80
2023/08/22 11:42:04;;;;;;;5.70;2.58;;;;;;;26.03;55.25;100941.91;4974279;28;20050;-81
2023/08/22 11:45:10;;;;;;;5.60;2.47;;;;;;;26.04;55.86;100937.38;4976401;28;20057;-80
2023/08/22 11:48:19;;;;;;;8.15;3.00;;;;;;;26.06;55.20;100936.22;4977233;28;20097;-79
2023/08/22 11:51:22;;;;;;;7.70;3.00;;;;;;;26.08;54.00;100934.22;4976025;28;20050;-78
2023/08/22 11:54:25;;;;;;;9.52;2.47;;;;;;;26.20;53.99;100927.47;4976931;28;20049;-82
2023/08/22 11:57:32;;;;;;;7.32;2.95;;;;;;;26.26;54.29;100928.63;4976937;28;20049;-81
2023/08/22 12:00:35;;;;;;;5.32;2.45;;;;;;;26.18;52.24;100924.13;4976426;28;20050;-73
2023/08/22 12:03:43;;;;;;;5.93;2.30;;;;;;;26.37;53.83;100930.09;4976162;28;20054;-74
2023/08/22 12:06:59;;;;;;;8.82;3.30;;;;;;;26.57;53.37;100927.84;4976069;28;20057;-74
2023/08/22 12:10:05;;;;;;;5.90;2.60;;;;;;;26.69;51.97;100936.34;4975989;28;20082;-75
2023/08/22 12:13:17;;;;;;;5.07;2.50;;;;;;;26.66;50.76;100938.38;4974973;28;20141;-74
2023/08/22 12:16:21;;;;;;;5.20;3.00;;;;;;;26.80;51.91;100925.22;4962853;28;20667;-74
2023/08/22 12:19:24;;;;;;;5.82;2.50;;;;;;;26.99;50.25;100922.06;4975208;28;20109;-75
2023/08/22 12:22:29;;;;;;;4.90;2.45;;;;;;;27.10;50.01;100928.91;4964511;28;20400;-76
2023/08/22 12:25:37;;;;;;;7.05;2.60;;;;;;;27.34;49.52;100926.03;4963624;28;20093;-76
2023/08/22 12:28:41;;;;;;;7.05;2.65;;;;;;;27.73;49.90;100927.75;4965465;28;20050;-76
2023/08/22 12:31:44;;;;;;;8.82;2.65;;;;;;;27.88;46.42;100927.78;4965247;28;20167;-75
2023/08/22 12:34:49;;;;;;;7.70;2.83;;;;;;;27.93;45.44;100920.00;4960918;28;20070;-74
2023/08/22 12:37:56;;;;;;;6.13;2.30;;;;;;;28.04;45.42;100922.22;4991979;28;20065;-75
2023/08/22 12:41:01;;;;;;;6.63;2.45;;;;;;;28.37;46.35;100910.28;4993727;28;20046;-76
2023/08/22 12:44:04;;;;;;;8.43;3.10;;;;;;;28.34;46.23;100911.47;4993392;28;20049;-76
2023/08/22 12:47:08;;;;;;;6.38;2.53;;;;;;;28.07;45.74;100909.44;4993918;28;20500;-66
2023/08/22 12:50:12;;;;;;;5.57;2.53;;;;;;;28.15;46.57;100915.56;4993222;28;20086;-67
2023/08/22 12:53:16;;;;;;;5.45;2.95;;;;;;;28.19;46.20;100918.72;4993491;28;20046;-75
2023/08/22 12:56:26;;;;;;;9.25;3.65;;;;;;;28.07;46.38;100920.19;4993012;28;20057;-76
2023/08/22 12:59:30;;;;;;;4.97;2.80;;;;;;;28.10;45.79;100925.19;4993122;28;20104;-76
2023/08/22 13:02:35;;;;;;;4.43;2.22;;;;;;;28.15;46.05;100918.25;4992787;28;20105;-76
2023/08/22 13:05:38;;;;;;;4.57;2.50;;;;;;;28.20;44.73;100920.38;4993144;28;20056;-75
2023/08/22 13:08:41;;;;;;;6.20;2.65;;;;;;;28.10;44.65;100909.06;4980669;28;20049;-76
2023/08/22 13:11:45;;;;;;;5.93;2.72;;;;;;;28.07;44.02;100910.28;4992747;28;20471;-75
2023/08/22 13:14:48;;;;;;;5.10;2.65;;;;;;;28.07;44.05;100920.19;4992851;28;20212;-75
2023/08/22 13:17:53;;;;;;;5.57;2.70;;;;;;;28.43;44.04;100904.16;4992755;28;20089;-75
2023/08/22 13:20:56;;;;;;;5.72;2.50;;;;;;;28.75;43.76;100900.22;4992612;28;20069;-76
2023/08/22 13:24:00;;;;;;;5.95;3.20;;;;;;;28.86;43.30;100907.75;4992544;28;20044;-76
2023/08/22 13:27:03;;;;;;;10.75;2.58;;;;;;;28.68;44.44;100896.59;4992675;28;20545;-76
2023/08/22 13:30:11;;;;;;;7.32;2.67;;;;;;;29.30;44.10;100895.19;4992447;28;20080;-76
2023/08/22 13:33:14;;;;;;;8.10;2.85;;;;;;;29.10;42.65;100901.22;4992561;28;20419;-76
2023/08/22 13:36:23;;;;;;;10.35;2.97;;;;;;;28.96;42.48;100902.91;4992472;28;20129;-75
2023/08/22 13:39:26;;;;;;;3.63;2.10;;;;;;;28.75;42.70;100900.22;4992486;28;20522;-76
2023/08/22 13:42:29;;;;;;;8.07;2.80;;;;;;;28.57;43.20;100905.16;4992258;28;20049;-76
2023/08/22 13:45:33;;;;;;;6.85;2.15;;;;;;;28.55;43.85;100899.97;4979709;28;20145;-75
2023/08/22 13:48:37;;;;;;;5.68;2.15;;;;;;;28.55;44.43;100896.44;4979946;28;20189;-75
2023/08/22 13:51:40;;;;;;;7.35;2.13;;;;;;;28.42;43.92;100897.13;4992095;28;20045;-76
2023/08/22 13:54:44;;;;;;;8.05;2.78;;;;;;;28.20;43.77;100901.56;4992025;28;20124;-75
2023/08/22 13:57:47;;;;;;;7.55;2.55;;;;;;;28.23;43.95;100899.31;4972692;28;20121;-76
2023/08/22 14:00:51;;;;;;;5.18;2.20;;;;;;;28.48;43.76;100896.38;4972539;28;20053;-76
2023/08/22 14:04:00;;;;;;;3.80;1.77;;;;;;;28.97;40.50;100896.50;4973713;28;20061;-76
2023/08/22 14:07:06;;;;;;;5.15;2.10;;;;;;;28.73;41.49;100895.00;4980933;28;20134;-75
2023/08/22 14:10:10;;;;;;;5.45;2.20;;;;;;;28.97;41.87;100887.56;4972505;28;20200;-76
2023/08/22 14:13:14;;;;;;;8.30;2.90;;;;;;;29.66;41.81;100893.19;4970203;28;20054;-76
2023/08/22 14:16:17;;;;;;;7.05;1.92;;;;;;;32.95;38.15;100889.44;4972607;28;20049;-77
2023/08/22 14:19:20;;;;;;;7.40;2.03;;;;;;;33.38;34.77;100892.28;4972584;28;20160;-76
2023/08/22 14:22:25;;;;;;;4.32;2.15;;;;;;;34.86;33.01;100902.09;4972304;28;20117;-76
2023/08/22 14:25:28;;;;;;;6.18;1.92;;;;;;;35.04;31.71;100887.66;4972186;28;20646;-75
2023/08/22 14:28:31;;;;;;;6.75;2.13;;;;;;;35.85;31.99;100891.47;4972899;28;20089;-77
2023/08/22 14:31:37;;;;;;;7.68;2.20;;;;;;;36.21;30.63;100886.81;4972818;28;20090;-79
2023/08/22 14:34:40;;;;;;;6.50;2.22;;;;;;;36.00;30.05;100882.00;4971935;28;20077;-77